Time;durP1;ratioP1;P1;durP2;ratioP2;P2;SDS_P1;SDS_P2;PMS_P1;PMS_P2;Temp;Humidity;BMP_temperature;BMP_pressure;BME280_temperature;BME280_humidity;BME280_pressure;Samples;Min_cycle;Max_cycle;Signal;HPM_P1;HPM_P2
2024/02/27 00:01:31;;;;;;;0.43;0.43;;;7.00;99.90;;;;;;4425245;32;20106;-73
2024/02/27 00:04:01;;;;;;;0.50;0.50;;;7.00;99.90;;;;;;4427261;32;20074;-72
2024/02/27 00:06:28;;;;;;;0.40;0.40;;;7.10;99.90;;;;;;4423145;32;20073;-72
2024/02/27 00:08:53;;;;;;;0.70;0.70;;;7.10;99.90;;;;;;4421953;32;20085;-73
2024/02/27 00:11:19;;;;;;;0.22;0.22;;;7.10;99.90;;;;;;4428773;32;20072;-73
2024/02/27 00:13:44;;;;;;;0.88;0.82;;;7.00;99.90;;;;;;4428696;32;20069;-79
2024/02/27 00:16:10;;;;;;;0.55;0.55;;;7.00;99.90;;;;;;4422747;32;20081;-79
2024/02/27 00:18:35;;;;;;;0.40;0.40;;;6.80;99.90;;;;;;4423989;32;20105;-79
2024/02/27 00:21:01;;;;;;;0.32;0.32;;;6.80;99.90;;;;;;4424046;32;20057;-79
2024/02/27 00:23:27;;;;;;;2.60;1.60;;;6.70;99.90;;;;;;4426901;32;20070;-79
2024/02/27 00:25:52;;;;;;;0.30;0.30;;;6.80;99.90;;;;;;4423226;32;20066;-79
2024/02/27 00:28:18;;;;;;;0.40;0.40;;;6.80;99.90;;;;;;4422049;32;20189;-78
2024/02/27 00:30:43;;;;;;;1.95;0.45;;;6.70;99.90;;;;;;4423266;32;20065;-79
2024/02/27 00:33:09;;;;;;;0.37;0.37;;;6.70;99.90;;;;;;4428291;32;20161;-79
2024/02/27 00:35:35;;;;;;;0.60;0.60;;;6.70;99.90;;;;;;4422906;32;20094;-79
2024/02/27 00:38:00;;;;;;;0.52;0.52;;;6.80;99.90;;;;;;4425094;32;20139;-77
2024/02/27 00:40:26;;;;;;;0.62;0.62;;;6.80;99.90;;;;;;4424759;32;20061;-79
2024/02/27 00:42:52;;;;;;;0.30;0.30;;;6.80;99.90;;;;;;4426241;32;20090;-79
2024/02/27 00:45:17;;;;;;;0.30;0.30;;;6.70;99.90;;;;;;4422620;32;20517;-78
2024/02/27 00:47:43;;;;;;;0.45;0.40;;;6.70;99.90;;;;;;4422497;32;20069;-78
2024/02/27 00:50:09;;;;;;;0.90;0.50;;;6.70;99.90;;;;;;4427970;32;20076;-79
2024/02/27 00:52:36;;;;;;;0.40;0.40;;;6.70;99.90;;;;;;4424836;32;20072;-79
2024/02/27 00:55:03;;;;;;;0.50;0.50;;;6.70;99.90;;;;;;4425805;32;20533;-77
2024/02/27 00:57:30;;;;;;;0.47;0.45;;;6.80;99.90;;;;;;4424035;32;20569;-77
2024/02/27 00:59:56;;;;;;;0.30;0.30;;;6.80;99.90;;;;;;4427048;32;20089;-80
2024/02/27 01:02:22;;;;;;;0.47;0.47;;;6.80;99.90;;;;;;4425934;32;20156;-75
2024/02/27 01:04:47;;;;;;;0.30;0.30;;;6.90;99.90;;;;;;4423320;32;20127;-76
2024/02/27 01:07:13;;;;;;;0.40;0.40;;;6.80;99.90;;;;;;4422538;32;20146;-76
2024/02/27 01:09:38;;;;;;;0.25;0.25;;;6.70;99.90;;;;;;4422631;32;20120;-75
2024/02/27 01:12:06;;;;;;;0.55;0.55;;;6.70;99.90;;;;;;4422175;32;20123;-76
2024/02/27 01:14:32;;;;;;;0.60;0.60;;;6.80;99.90;;;;;;4424058;32;20583;-75
2024/02/27 01:16:58;;;;;;;1.20;0.88;;;6.60;99.90;;;;;;4425138;32;20072;-76
2024/02/27 01:19:24;;;;;;;0.65;0.65;;;6.60;99.90;;;;;;4423678;32;20085;-76
2024/02/27 01:21:49;;;;;;;0.40;0.40;;;6.60;99.90;;;;;;4424256;32;20085;-75
2024/02/27 01:24:15;;;;;;;0.40;0.40;;;6.60;99.90;;;;;;4424926;32;20062;-75
2024/02/27 01:26:40;;;;;;;0.32;0.32;;;6.70;99.90;;;;;;4421966;32;20073;-75
2024/02/27 01:29:06;;;;;;;2.25;0.85;;;6.60;99.90;;;;;;4423509;32;20076;-75
2024/02/27 01:31:31;;;;;;;0.35;0.35;;;6.50;99.90;;;;;;4424706;32;20065;-75
2024/02/27 01:33:57;;;;;;;0.47;0.47;;;6.50;99.90;;;;;;4421893;32;20098;-75
2024/02/27 01:36:22;;;;;;;0.50;0.50;;;6.50;99.90;;;;;;4422879;32;20133;-75
2024/02/27 01:38:48;;;;;;;0.40;0.40;;;6.50;99.90;;;;;;4421643;32;20065;-75
2024/02/27 01:41:13;;;;;;;0.30;0.30;;;6.50;99.90;;;;;;4421937;32;20062;-76
2024/02/27 01:43:39;;;;;;;2.17;1.00;;;6.50;99.90;;;;;;4425039;32;20070;-71
2024/02/27 01:46:21;;;;;;;0.40;0.40;;;6.60;99.90;;;;;;4423696;32;20068;-71
2024/02/27 01:48:47;;;;;;;0.40;0.40;;;6.60;99.90;;;;;;4424195;32;20452;-76
2024/02/27 01:51:14;;;;;;;0.50;0.50;;;6.60;99.90;;;;;;4424909;32;20428;-72
2024/02/27 01:53:41;;;;;;;0.85;0.68;;;6.70;99.90;;;;;;4423275;32;20441;-73
2024/02/27 01:56:10;;;;;;;0.60;0.60;;;6.60;99.90;;;;;;4425902;32;20139;-71
2024/02/27 01:58:37;;;;;;;0.62;0.60;;;6.60;99.90;;;;;;4423828;32;20486;-72
2024/02/27 02:01:02;;;;;;;0.50;0.50;;;6.50;99.90;;;;;;4423781;32;20078;-72
2024/02/27 02:03:31;;;;;;;0.70;0.52;;;6.40;99.90;;;;;;4424004;32;20543;-72
2024/02/27 02:05:58;;;;;;;0.40;0.40;;;6.40;99.90;;;;;;4423168;32;20463;-73
2024/02/27 02:08:27;;;;;;;0.40;0.40;;;6.40;99.90;;;;;;4421556;32;20073;-73
2024/02/27 02:10:53;;;;;;;0.30;0.30;;;6.40;99.90;;;;;;4407526;32;20562;-73
2024/02/27 02:13:18;;;;;;;0.40;0.40;;;6.50;99.90;;;;;;4422182;32;20073;-76
2024/02/27 02:15:44;;;;;;;2.40;1.25;;;6.50;99.90;;;;;;4421269;32;20151;-76
2024/02/27 02:18:10;;;;;;;0.93;0.80;;;6.50;99.90;;;;;;4420451;32;20068;-76
2024/02/27 02:20:35;;;;;;;0.95;0.57;;;6.50;99.90;;;;;;4422564;32;20097;-76
2024/02/27 02:23:01;;;;;;;0.40;0.40;;;6.50;99.90;;;;;;4423704;32;20809;-76
2024/02/27 02:25:30;;;;;;;0.85;0.75;;;6.40;99.90;;;;;;4422226;32;20619;-78
2024/02/27 02:27:56;;;;;;;0.35;0.35;;;6.40;99.90;;;;;;4421968;32;20090;-78
2024/02/27 02:30:21;;;;;;;0.80;0.60;;;6.40;99.90;;;;;;4424266;32;20085;-77
2024/02/27 02:32:48;;;;;;;0.43;0.43;;;6.50;99.90;;;;;;4424006;32;20066;-77
2024/02/27 02:35:14;;;;;;;0.43;0.43;;;6.50;99.90;;;;;;4423539;32;20073;-77
2024/02/27 02:37:40;;;;;;;0.37;0.37;;;6.50;99.90;;;;;;4420943;32;20073;-77
2024/02/27 02:40:06;;;;;;;0.45;0.45;;;6.50;99.90;;;;;;4421138;32;20081;-77
2024/02/27 02:42:33;;;;;;;0.32;0.32;;;6.50;99.90;;;;;;4420295;32;20139;-76
2024/02/27 02:44:58;;;;;;;0.40;0.40;;;6.40;99.90;;;;;;4422903;32;20080;-76
2024/02/27 02:47:24;;;;;;;0.30;0.30;;;6.40;99.90;;;;;;4421769;32;20061;-75
2024/02/27 02:49:49;;;;;;;0.35;0.35;;;6.40;99.90;;;;;;4423228;32;20086;-76
2024/02/27 02:52:15;;;;;;;1.27;0.93;;;6.40;99.90;;;;;;4420814;32;20070;-73
2024/02/27 02:54:40;;;;;;;0.37;0.37;;;6.40;99.90;;;;;;4423240;32;20155;-76
2024/02/27 02:57:06;;;;;;;0.40;0.40;;;6.40;99.90;;;;;;4423064;32;20088;-75
2024/02/27 02:59:31;;;;;;;0.77;0.77;;;6.50;99.90;;;;;;4421702;32;20097;-76
2024/02/27 03:01:57;;;;;;;0.62;0.62;;;6.50;99.90;;;;;;4424491;32;20563;-75
2024/02/27 03:04:22;;;;;;;0.50;0.50;;;6.50;99.90;;;;;;4421753;32;20061;-76
2024/02/27 03:06:48;;;;;;;0.60;0.60;;;6.30;99.90;;;;;;4423278;32;20132;-76
2024/02/27 03:09:13;;;;;;;0.50;0.50;;;6.30;99.90;;;;;;4423644;32;20607;-75
2024/02/27 03:11:39;;;;;;;0.50;0.50;;;6.20;99.90;;;;;;4423660;32;20121;-75
2024/02/27 03:14:06;;;;;;;0.40;0.40;;;6.30;99.90;;;;;;4426405;32;20556;-73
2024/02/27 03:16:31;;;;;;;0.60;0.60;;;6.30;99.90;;;;;;4423906;32;20445;-74
2024/02/27 03:18:57;;;;;;;0.60;0.60;;;6.20;99.90;;;;;;4423565;32;20419;-74
2024/02/27 03:21:22;;;;;;;0.55;0.55;;;6.20;99.90;;;;;;4421881;32;20428;-76
2024/02/27 03:23:48;;;;;;;0.60;0.60;;;6.20;99.90;;;;;;4423695;32;20496;-73
2024/02/27 03:26:16;;;;;;;0.50;0.50;;;6.30;99.90;;;;;;4427673;32;20092;-73
2024/02/27 03:28:42;;;;;;;0.32;0.32;;;6.30;99.90;;;;;;4424463;32;20554;-71
2024/02/27 03:31:08;;;;;;;0.40;0.40;;;6.20;99.90;;;;;;4426507;32;20066;-73
2024/02/27 03:33:34;;;;;;;1.02;1.00;;;6.20;99.90;;;;;;4425509;32;20106;-73
2024/02/27 03:36:03;;;;;;;0.57;0.57;;;6.30;99.90;;;;;;4426465;32;20549;-74
2024/02/27 03:38:28;;;;;;;0.35;0.35;;;6.20;99.90;;;;;;4423641;32;20117;-72
2024/02/27 03:40:54;;;;;;;0.32;0.32;;;6.20;99.90;;;;;;4427315;32;20622;-73
2024/02/27 03:43:19;;;;;;;0.50;0.50;;;6.10;99.90;;;;;;4426984;32;20080;-73
2024/02/27 03:45:45;;;;;;;0.30;0.30;;;6.10;99.90;;;;;;4424959;32;20092;-73
2024/02/27 03:48:10;;;;;;;0.57;0.57;;;6.10;99.90;;;;;;4424195;32;20069;-73
2024/02/27 03:50:36;;;;;;;0.45;0.45;;;6.10;99.90;;;;;;4424588;32;20612;-73
2024/02/27 03:53:01;;;;;;;0.70;0.70;;;6.10;99.90;;;;;;4425898;32;20089;-74
2024/02/27 03:55:28;;;;;;;0.50;0.50;;;6.10;99.90;;;;;;4429986;32;20100;-73
2024/02/27 03:57:53;;;;;;;2.40;1.20;;;6.10;99.90;;;;;;4428065;32;20088;-75
2024/02/27 04:00:19;;;;;;;0.60;0.60;;;6.10;99.90;;;;;;4425495;32;20128;-73
2024/02/27 04:02:44;;;;;;;0.75;0.75;;;6.20;99.90;;;;;;4425919;32;20077;-74
2024/02/27 04:05:11;;;;;;;1.02;0.68;;;6.10;99.90;;;;;;4422811;32;20430;-74
2024/02/27 04:07:36;;;;;;;1.27;1.17;;;6.10;99.90;;;;;;4425872;32;20411;-75
2024/02/27 04:10:02;;;;;;;0.32;0.32;;;6.10;99.90;;;;;;4425432;32;20124;-75
2024/02/27 04:12:28;;;;;;;0.47;0.47;;;6.10;99.90;;;;;;4424801;32;20535;-74
2024/02/27 04:14:53;;;;;;;0.50;0.50;;;6.10;99.90;;;;;;4425167;32;20097;-73
2024/02/27 04:17:19;;;;;;;0.50;0.50;;;6.00;99.90;;;;;;4423580;32;20565;-74
2024/02/27 04:19:44;;;;;;;1.35;0.50;;;6.00;99.90;;;;;;4424521;32;20120;-74
2024/02/27 04:22:10;;;;;;;0.90;0.55;;;5.90;99.90;;;;;;4425124;32;20131;-73
2024/02/27 04:24:35;;;;;;;0.50;0.50;;;5.80;99.90;;;;;;4424991;32;20077;-77
2024/02/27 04:27:02;;;;;;;2.25;1.58;;;5.80;99.90;;;;;;4421440;32;20094;-77
2024/02/27 04:29:28;;;;;;;0.43;0.43;;;5.90;99.90;;;;;;4421599;32;20567;-77
2024/02/27 04:31:53;;;;;;;0.80;0.40;;;6.00;99.90;;;;;;4424288;32;20128;-77
2024/02/27 04:34:19;;;;;;;1.15;1.05;;;6.00;99.90;;;;;;4426012;32;20124;-77
2024/02/27 04:36:48;;;;;;;0.57;0.52;;;6.00;99.90;;;;;;4421339;32;20078;-77
2024/02/27 04:39:15;;;;;;;0.30;0.30;;;6.10;99.90;;;;;;4424406;32;20060;-77
2024/02/27 04:41:41;;;;;;;0.45;0.45;;;6.20;99.90;;;;;;4422919;32;20093;-76
2024/02/27 04:44:09;;;;;;;1.90;0.55;;;6.10;99.90;;;;;;4424629;32;20073;-77
2024/02/27 04:46:34;;;;;;;2.22;1.17;;;6.10;99.90;;;;;;4423182;32;20471;-77
2024/02/27 04:49:00;;;;;;;0.50;0.50;;;6.00;99.90;;;;;;4423785;32;20086;-77
2024/02/27 04:51:25;;;;;;;0.65;0.65;;;5.90;99.90;;;;;;4425737;32;20089;-76
2024/02/27 04:53:51;;;;;;;0.55;0.55;;;6.00;99.90;;;;;;4424227;32;20084;-76
2024/02/27 04:56:16;;;;;;;0.30;0.30;;;6.00;99.90;;;;;;4424742;32;20077;-77
2024/02/27 04:58:41;;;;;;;0.80;0.80;;;6.00;99.90;;;;;;4425105;32;20086;-77
2024/02/27 05:01:13;;;;;;;1.20;0.98;;;6.00;99.90;;;;;;4425351;32;21762;-77
2024/02/27 05:03:40;;;;;;;0.57;0.57;;;6.10;99.90;;;;;;4410571;32;20101;-75
2024/02/27 05:06:06;;;;;;;1.08;0.60;;;6.10;99.90;;;;;;4422683;32;20124;-76
2024/02/27 05:08:31;;;;;;;0.52;0.52;;;6.10;99.90;;;;;;4421437;32;20189;-75
2024/02/27 05:10:57;;;;;;;0.50;0.50;;;5.90;99.90;;;;;;4422772;32;20629;-76
2024/02/27 05:13:22;;;;;;;0.30;0.30;;;6.00;99.90;;;;;;4423502;32;20077;-75
2024/02/27 05:15:48;;;;;;;0.80;0.80;;;5.90;99.90;;;;;;4422286;32;20077;-75
2024/02/27 05:18:13;;;;;;;0.50;0.50;;;5.90;99.90;;;;;;4424857;32;20089;-75
2024/02/27 05:20:39;;;;;;;0.50;0.50;;;5.80;99.90;;;;;;4421006;32;20076;-75
2024/02/27 05:23:05;;;;;;;0.75;0.62;;;5.80;99.90;;;;;;4419356;32;20077;-75
2024/02/27 05:25:30;;;;;;;0.52;0.52;;;5.90;99.90;;;;;;4421351;32;20077;-75
2024/02/27 05:27:56;;;;;;;1.27;0.93;;;5.80;99.90;;;;;;4424025;32;20412;-75
2024/02/27 05:30:21;;;;;;;3.40;1.85;;;5.80;99.90;;;;;;4424392;32;20136;-75
2024/02/27 05:32:47;;;;;;;0.60;0.60;;;5.90;99.90;;;;;;4425079;32;20081;-75
2024/02/27 05:35:13;;;;;;;4.80;2.30;;;5.90;99.90;;;;;;4421303;32;20354;-76
2024/02/27 05:37:39;;;;;;;0.40;0.40;;;5.90;99.90;;;;;;4423035;32;20160;-75
2024/02/27 05:40:09;;;;;;;0.40;0.40;;;5.90;99.90;;;;;;4422503;32;20267;-75
2024/02/27 05:42:34;;;;;;;0.60;0.60;;;5.90;99.90;;;;;;4423763;32;20369;-76
2024/02/27 05:45:00;;;;;;;2.55;0.85;;;5.70;99.90;;;;;;4423236;32;20556;-73
2024/02/27 05:47:26;;;;;;;0.85;0.73;;;5.70;99.90;;;;;;4424896;32;20408;-72
2024/02/27 05:49:53;;;;;;;0.40;0.40;;;5.50;99.90;;;;;;4425002;32;20088;-75
2024/02/27 05:52:18;;;;;;;0.50;0.50;;;5.50;99.90;;;;;;4420997;32;20078;-73
2024/02/27 05:54:44;;;;;;;0.60;0.60;;;5.50;99.90;;;;;;4423456;32;20579;-75
2024/02/27 05:57:11;;;;;;;0.40;0.40;;;5.40;99.90;;;;;;4421471;32;20069;-75
2024/02/27 05:59:36;;;;;;;0.57;0.57;;;5.30;99.90;;;;;;4423734;32;20080;-75
2024/02/27 06:02:03;;;;;;;0.98;0.95;;;5.20;99.90;;;;;;4424126;32;20072;-74
2024/02/27 06:04:28;;;;;;;0.85;0.85;;;5.20;99.90;;;;;;4424161;32;20081;-76
2024/02/27 06:06:54;;;;;;;0.40;0.40;;;5.20;99.90;;;;;;4410090;32;20091;-75
2024/02/27 06:09:19;;;;;;;0.60;0.60;;;5.30;99.90;;;;;;4423579;32;20520;-76
2024/02/27 06:11:45;;;;;;;0.60;0.60;;;5.10;99.90;;;;;;4420280;32;20069;-77
2024/02/27 06:14:11;;;;;;;0.65;0.60;;;5.10;99.90;;;;;;4408155;32;20102;-76
2024/02/27 06:16:36;;;;;;;1.75;0.75;;;5.10;99.90;;;;;;4419042;32;20454;-76
2024/02/27 06:19:02;;;;;;;0.40;0.40;;;5.20;99.90;;;;;;4420529;32;20073;-76
2024/02/27 06:22:29;;;;;;;0.52;0.52;;;5.20;99.90;;;;;;4410765;32;20077;-76
2024/02/27 06:24:13;;;;;;;4.35;0.50;;;5.20;99.90;;;;;;4408143;32;20541;-79
2024/02/27 06:26:39;;;;;;;1.65;1.20;;;5.20;99.90;;;;;;4405056;32;20135;-78
2024/02/27 06:29:04;;;;;;;2.12;0.90;;;5.20;99.90;;;;;;4418112;32;20073;-79
2024/02/27 06:31:31;;;;;;;0.50;0.50;;;5.20;99.90;;;;;;4419788;32;20112;-78
2024/02/27 06:33:57;;;;;;;1.00;0.85;;;5.20;99.90;;;;;;4413752;32;20494;-76
2024/02/27 06:36:23;;;;;;;0.47;0.47;;;5.20;99.90;;;;;;4416106;32;20136;-76
2024/02/27 06:38:49;;;;;;;0.40;0.40;;;5.20;99.90;;;;;;4417132;32;20656;-77
2024/02/27 06:41:15;;;;;;;2.83;1.52;;;5.20;99.90;;;;;;4417039;32;20152;-77
2024/02/27 06:43:40;;;;;;;2.30;0.85;;;5.20;99.90;;;;;;4416921;32;20086;-76
2024/02/27 06:46:06;;;;;;;1.35;1.25;;;5.30;99.90;;;;;;4415664;32;20065;-76
2024/02/27 06:48:32;;;;;;;0.57;0.57;;;5.30;99.90;;;;;;4412711;32;20112;-76
2024/02/27 06:50:58;;;;;;;0.82;0.82;;;5.30;99.90;;;;;;4409896;32;20133;-77
2024/02/27 06:53:23;;;;;;;0.90;0.73;;;5.40;99.90;;;;;;4408149;32;20453;-77
2024/02/27 06:55:49;;;;;;;10.07;1.12;;;5.40;99.90;;;;;;4399934;32;20100;-77
2024/02/27 06:58:16;;;;;;;0.47;0.47;;;5.40;99.90;;;;;;4391957;32;20084;-76
2024/02/27 07:00:41;;;;;;;0.62;0.62;;;5.40;99.90;;;;;;4392683;32;20524;-76
2024/02/27 07:03:07;;;;;;;0.70;0.68;;;5.30;99.90;;;;;;4394756;32;20098;-77
2024/02/27 07:05:34;;;;;;;3.35;1.00;;;5.40;99.90;;;;;;4400528;32;20610;-77
2024/02/27 07:07:59;;;;;;;11.12;2.12;;;5.40;99.90;;;;;;4397105;32;20862;-78
2024/02/27 07:10:25;;;;;;;3.60;1.27;;;5.30;99.90;;;;;;4400392;32;20157;-77
2024/02/27 07:12:51;;;;;;;2.95;1.58;;;5.40;99.90;;;;;;4390537;32;20944;-77
2024/02/27 07:15:16;;;;;;;1.02;1.02;;;5.50;99.90;;;;;;4395179;32;20097;-77
2024/02/27 07:17:42;;;;;;;1.30;0.90;;;5.40;99.90;;;;;;4396797;32;20646;-77
2024/02/27 07:20:09;;;;;;;2.40;1.10;;;5.50;99.90;;;;;;4394580;32;20782;-77
2024/02/27 07:22:35;;;;;;;1.15;0.77;;;5.60;99.90;;;;;;4394644;32;20081;-77
2024/02/27 07:25:01;;;;;;;5.37;1.55;;;5.60;99.90;;;;;;4390690;32;20086;-77
2024/02/27 07:27:26;;;;;;;0.75;0.75;;;5.50;99.90;;;;;;4394852;32;20122;-77
2024/02/27 07:29:52;;;;;;;0.93;0.55;;;5.60;99.90;;;;;;4399457;32;20112;-77
2024/02/27 07:32:17;;;;;;;0.68;0.68;;;5.70;99.90;;;;;;4399362;32;20082;-77
2024/02/27 07:34:43;;;;;;;7.50;1.92;;;5.70;99.90;;;;;;4405336;32;20097;-78
2024/02/27 07:37:13;;;;;;;0.95;0.95;;;5.60;99.90;;;;;;4397082;32;20151;-78
2024/02/27 07:39:39;;;;;;;8.68;1.58;;;5.60;99.90;;;;;;4391886;32;20121;-77
2024/02/27 07:42:05;;;;;;;2.75;1.45;;;5.70;99.90;;;;;;4403312;32;20093;-77
2024/02/27 07:44:30;;;;;;;1.30;1.20;;;5.70;99.90;;;;;;4394797;32;20627;-78
2024/02/27 07:46:56;;;;;;;1.80;1.37;;;5.80;99.90;;;;;;4392726;32;20122;-78
2024/02/27 07:49:22;;;;;;;1.90;1.73;;;5.80;99.90;;;;;;4393313;32;20097;-77
2024/02/27 07:51:47;;;;;;;3.85;1.60;;;5.80;99.90;;;;;;4389433;32;20825;-79
2024/02/27 07:54:16;;;;;;;3.75;1.70;;;5.80;99.90;;;;;;4396953;32;20186;-77
2024/02/27 07:56:43;;;;;;;1.23;1.02;;;5.80;99.90;;;;;;4398138;32;20105;-80
2024/02/27 07:59:09;;;;;;;5.03;2.35;;;5.90;99.90;;;;;;4399546;32;20108;-79
2024/02/27 08:01:35;;;;;;;4.28;1.25;;;6.10;99.90;;;;;;4398464;32;20217;-77
2024/02/27 08:04:01;;;;;;;3.08;1.87;;;6.00;99.90;;;;;;4397844;32;21810;-77
2024/02/27 08:06:27;;;;;;;0.93;0.80;;;6.00;99.90;;;;;;4401347;32;20549;-77
2024/02/27 08:08:54;;;;;;;1.42;1.33;;;6.00;99.90;;;;;;4404968;32;20220;-77
2024/02/27 08:11:22;;;;;;;3.03;1.77;;;6.00;99.90;;;;;;4394240;32;20093;-77
2024/02/27 08:13:48;;;;;;;31.45;1.80;;;6.00;99.90;;;;;;4398291;32;20436;-75
2024/02/27 08:16:14;;;;;;;10.57;3.72;;;6.00;99.90;;;;;;4405979;32;20109;-76
2024/02/27 08:18:39;;;;;;;3.22;1.98;;;6.10;99.90;;;;;;4393508;32;20146;-78
2024/02/27 08:21:05;;;;;;;1.12;1.02;;;5.90;99.90;;;;;;4401672;32;20820;-76
2024/02/27 08:23:31;;;;;;;0.90;0.90;;;5.90;99.90;;;;;;4394756;32;20113;-75
2024/02/27 08:25:57;;;;;;;7.78;2.03;;;6.00;99.90;;;;;;4394592;32;20549;-76
2024/02/27 08:28:23;;;;;;;1.27;0.93;;;6.00;99.90;;;;;;4386814;32;20183;-76
2024/02/27 08:30:49;;;;;;;3.12;1.48;;;6.10;99.90;;;;;;4384768;32;20089;-76
2024/02/27 08:33:15;;;;;;;1.77;1.00;;;6.00;99.90;;;;;;4391906;32;20163;-76
2024/02/27 08:35:49;;;;;;;1.20;1.10;;;6.10;99.90;;;;;;4392917;32;20945;-77
2024/02/27 08:38:14;;;;;;;4.40;1.20;;;6.20;99.90;;;;;;4393966;32;20478;-77
2024/02/27 08:40:40;;;;;;;6.97;1.75;;;6.20;99.90;;;;;;4398154;32;20113;-77
2024/02/27 08:43:05;;;;;;;4.12;2.30;;;6.20;99.90;;;;;;4400552;32;20237;-77
2024/02/27 08:45:31;;;;;;;1.48;1.15;;;6.20;99.90;;;;;;4400102;32;20104;-76
2024/02/27 08:47:57;;;;;;;4.53;1.90;;;6.20;99.90;;;;;;4386283;32;20096;-76
2024/02/27 08:50:25;;;;;;;2.40;2.20;;;6.20;99.90;;;;;;4390882;32;20564;-77
2024/02/27 08:52:51;;;;;;;1.45;1.27;;;6.20;99.90;;;;;;4389046;32;20089;-78
2024/02/27 08:55:17;;;;;;;2.53;1.48;;;6.20;99.90;;;;;;4401413;32;20089;-75
2024/02/27 08:57:46;;;;;;;1.15;1.05;;;6.20;99.90;;;;;;4394518;32;20943;-76
2024/02/27 09:00:14;;;;;;;0.77;0.77;;;6.30;99.90;;;;;;4394421;32;20105;-75
2024/02/27 09:02:40;;;;;;;2.70;1.73;;;6.40;99.90;;;;;;4397226;32;20093;-75
2024/02/27 09:05:06;;;;;;;1.67;1.23;;;6.40;99.90;;;;;;4396446;32;20512;-74
2024/02/27 09:07:31;;;;;;;8.63;1.58;;;6.40;99.90;;;;;;4393170;32;20085;-76
2024/02/27 09:09:57;;;;;;;1.48;1.20;;;6.40;99.90;;;;;;4386909;32;20498;-75
2024/02/27 09:12:25;;;;;;;2.45;0.93;;;6.30;99.90;;;;;;4387587;32;20276;-77
2024/02/27 09:14:50;;;;;;;2.05;1.15;;;6.30;99.90;;;;;;4396842;32;20622;-75
2024/02/27 09:17:16;;;;;;;3.50;1.37;;;6.30;99.90;;;;;;4402160;32;20125;-77
2024/02/27 09:19:42;;;;;;;1.85;1.30;;;6.40;99.90;;;;;;4396300;32;20541;-76
2024/02/27 09:22:07;;;;;;;0.85;0.85;;;6.50;99.90;;;;;;4392822;32;21102;-77
2024/02/27 09:24:33;;;;;;;0.90;0.62;;;6.50;99.90;;;;;;4397597;32;20207;-76
2024/02/27 09:26:59;;;;;;;7.12;0.95;;;6.50;99.90;;;;;;4396908;32;20084;-77
2024/02/27 09:29:25;;;;;;;3.67;1.70;;;6.40;99.90;;;;;;4393589;32;20082;-77
2024/02/27 09:31:50;;;;;;;0.98;0.98;;;6.40;99.90;;;;;;4394117;32;20118;-77
2024/02/27 09:34:16;;;;;;;0.68;0.62;;;6.50;99.90;;;;;;4394706;32;20109;-77
2024/02/27 09:36:41;;;;;;;1.25;1.20;;;6.40;99.90;;;;;;4396698;32;20099;-76
2024/02/27 09:39:07;;;;;;;17.73;1.17;;;6.40;99.90;;;;;;4384782;32;20114;-74
2024/02/27 09:41:48;;;;;;;0.90;0.73;;;6.40;99.90;;;;;;4387496;32;20591;-75
2024/02/27 09:44:13;;;;;;;;;;;6.40;99.90;;;;;;4380945;32;20147;-74
2024/02/27 09:46:41;;;;;;;0.70;0.70;;;6.50;99.90;;;;;;4391092;32;19945;-75
2024/02/27 09:49:08;;;;;;;2.75;1.80;;;6.50;99.90;;;;;;4388984;32;20110;-75
2024/02/27 09:51:35;;;;;;;3.53;1.42;;;6.50;99.90;;;;;;4391432;32;20557;-74
2024/02/27 09:54:01;;;;;;;1.58;1.27;;;6.50;99.90;;;;;;4391206;32;20130;-74
2024/02/27 09:56:27;;;;;;;2.62;0.88;;;6.50;99.90;;;;;;4387922;32;20257;-76
2024/02/27 09:58:54;;;;;;;1.55;1.15;;;6.50;99.90;;;;;;4389302;32;20092;-76
2024/02/27 10:01:21;;;;;;;0.98;0.82;;;6.60;99.90;;;;;;4387151;32;20092;-75
2024/02/27 10:03:49;;;;;;;1.35;1.25;;;6.60;99.90;;;;;;4387103;32;20111;-76
2024/02/27 10:06:16;;;;;;;1.40;1.02;;;6.60;99.90;;;;;;4398330;32;20140;-77
2024/02/27 10:08:47;;;;;;;0.47;0.47;;;6.70;99.90;;;;;;4389248;32;20871;-76
2024/02/27 10:11:13;;;;;;;;;;;6.70;99.90;;;;;;4386602;32;20177;-74
2024/02/27 10:13:38;;;;;;;1.50;0.88;;;6.70;99.90;;;;;;4385415;32;19972;-77
2024/02/27 10:16:04;;;;;;;1.48;0.80;;;6.80;99.90;;;;;;4385151;32;21385;-75
2024/02/27 10:18:31;;;;;;;1.27;1.02;;;6.90;99.90;;;;;;4383067;32;20066;-76
2024/02/27 10:20:57;;;;;;;0.75;0.75;;;6.80;99.90;;;;;;4389308;32;20064;-77
2024/02/27 10:23:23;;;;;;;0.60;0.60;;;6.80;99.90;;;;;;4385617;32;20128;-76
2024/02/27 10:25:50;;;;;;;1.15;1.08;;;6.80;99.90;;;;;;4391399;32;20237;-76
2024/02/27 10:28:18;;;;;;;1.80;1.12;;;6.80;99.90;;;;;;4386362;32;20489;-76
2024/02/27 10:30:44;;;;;;;1.45;1.00;;;6.80;99.90;;;;;;4386003;32;20084;-77
2024/02/27 10:33:13;;;;;;;0.47;0.47;;;6.90;99.90;;;;;;4381775;32;20225;-77
2024/02/27 10:35:40;;;;;;;1.45;0.80;;;6.90;99.90;;;;;;4391544;32;20092;-76
2024/02/27 10:38:22;;;;;;;0.75;0.75;;;7.00;99.90;;;;;;4385911;32;20526;-76
2024/02/27 10:40:48;;;;;;;1.98;1.17;;;7.00;99.90;;;;;;4389586;32;20092;-77
2024/02/27 10:43:14;;;;;;;0.57;0.57;;;7.10;99.90;;;;;;4386127;32;20588;-79
2024/02/27 10:45:41;;;;;;;2.42;1.17;;;7.10;99.90;;;;;;4393553;32;20100;-77
2024/02/27 10:48:07;;;;;;;3.25;1.05;;;7.10;99.90;;;;;;4391785;32;20398;-77
2024/02/27 10:50:34;;;;;;;1.77;1.25;;;7.10;99.90;;;;;;4390974;32;20112;-77
2024/02/27 10:53:09;;;;;;;0.80;0.80;;;7.10;99.90;;;;;;4395596;32;20130;-76
2024/02/27 10:55:37;;;;;;;0.68;0.68;;;7.10;99.90;;;;;;4387463;32;20490;-76
2024/02/27 10:58:03;;;;;;;0.65;0.65;;;7.20;99.90;;;;;;4385408;32;20163;-76
2024/02/27 11:00:30;;;;;;;11.55;1.52;;;7.30;99.90;;;;;;4390861;32;20183;-76
2024/02/27 11:02:57;;;;;;;0.77;0.77;;;7.30;99.90;;;;;;4392339;32;20084;-76
2024/02/27 11:05:26;;;;;;;0.88;0.88;;;7.40;99.90;;;;;;4389166;32;20101;-76
2024/02/27 11:07:55;;;;;;;1.10;1.02;;;7.40;99.90;;;;;;4389510;32;20159;-77
2024/02/27 11:10:25;;;;;;;1.33;1.23;;;7.30;99.90;;;;;;4387955;32;20275;-75
2024/02/27 11:12:52;;;;;;;0.60;0.60;;;7.40;99.90;;;;;;4390744;32;20188;-75
2024/02/27 11:15:19;;;;;;;0.50;0.50;;;7.40;99.90;;;;;;4388890;32;20805;-77
2024/02/27 11:17:51;;;;;;;2.25;1.10;;;7.40;99.90;;;;;;4395336;32;20086;-74
2024/02/27 11:20:17;;;;;;;1.10;0.90;;;7.40;99.90;;;;;;4394603;32;21236;-75
2024/02/27 11:22:44;;;;;;;4.53;1.77;;;7.40;99.90;;;;;;4399243;32;20781;-75
2024/02/27 11:25:10;;;;;;;0.85;0.85;;;7.50;99.90;;;;;;4400958;32;20077;-75
2024/02/27 11:27:37;;;;;;;0.70;0.70;;;7.50;99.90;;;;;;4393953;32;20139;-76
2024/02/27 11:30:05;;;;;;;1.90;0.75;;;7.60;99.90;;;;;;4405348;32;20164;-75
2024/02/27 11:32:32;;;;;;;0.80;0.80;;;7.60;99.90;;;;;;4403348;32;20082;-74
2024/02/27 11:35:01;;;;;;;2.20;1.40;;;7.60;99.90;;;;;;4405606;32;20093;-75
2024/02/27 11:37:27;;;;;;;0.75;0.73;;;7.60;99.90;;;;;;4401094;32;20093;-76
2024/02/27 11:39:53;;;;;;;0.60;0.60;;;7.60;99.90;;;;;;4395922;32;20905;-76
2024/02/27 11:42:37;;;;;;;0.80;0.80;;;7.50;99.90;;;;;;4401011;32;20158;-75
2024/02/27 11:45:06;;;;;;;1.02;0.60;;;7.60;99.90;;;;;;4405127;32;20547;-74
2024/02/27 11:47:53;;;;;;;0.95;0.95;;;7.60;99.90;;;;;;4412820;32;20518;-75
2024/02/27 11:50:36;;;;;;;1.23;1.12;;;7.70;99.90;;;;;;4411743;32;20113;-75
2024/02/27 11:53:20;;;;;;;0.45;0.45;;;7.80;99.90;;;;;;4404496;32;111259;-75
2024/02/27 11:55:48;;;;;;;1.48;0.98;;;7.80;99.90;;;;;;4399637;32;20866;-75
2024/02/27 11:58:15;;;;;;;7.18;2.33;;;7.80;99.90;;;;;;4393937;32;20097;-75
2024/02/27 12:00:45;;;;;;;0.65;0.62;;;7.80;99.90;;;;;;4398715;32;20077;-75
2024/02/27 12:03:11;;;;;;;0.70;0.70;;;7.80;99.90;;;;;;4389018;32;21258;-75
2024/02/27 12:05:37;;;;;;;1.35;1.25;;;7.80;99.90;;;;;;4399043;32;20253;-75
2024/02/27 12:08:04;;;;;;;2.33;0.62;;;7.90;99.90;;;;;;4398317;32;20097;-76
2024/02/27 12:10:30;;;;;;;4.25;1.62;;;7.80;99.90;;;;;;4402060;32;20164;-76
2024/02/27 12:12:56;;;;;;;2.35;1.40;;;7.80;99.90;;;;;;4397561;32;20326;-76
2024/02/27 12:15:22;;;;;;;8.00;1.35;;;7.90;99.90;;;;;;4397741;32;20101;-75
2024/02/27 12:17:48;;;;;;;4.20;1.55;;;7.90;99.90;;;;;;4398540;32;20386;-76
2024/02/27 12:20:16;;;;;;;0.75;0.75;;;7.90;99.90;;;;;;4395980;32;20113;-75
2024/02/27 12:22:45;;;;;;;0.70;0.70;;;8.00;99.90;;;;;;4393213;32;20110;-76
2024/02/27 12:25:12;;;;;;;3.28;0.98;;;8.00;99.90;;;;;;4395344;32;20088;-77
2024/02/27 12:27:38;;;;;;;0.77;0.77;;;8.00;99.90;;;;;;4374816;32;20096;-76
2024/02/27 12:30:12;;;;;;;0.80;0.68;;;8.00;99.90;;;;;;4387955;32;21728;-76
2024/02/27 12:32:40;;;;;;;3.17;1.40;;;8.00;99.90;;;;;;4385055;32;21018;-75
2024/02/27 12:35:09;;;;;;;0.82;0.75;;;8.00;99.90;;;;;;4396845;32;20857;-75
2024/02/27 12:37:44;;;;;;;0.40;0.40;;;8.00;99.90;;;;;;4399655;32;21627;-74
2024/02/27 12:40:13;;;;;;;0.60;0.60;;;8.20;99.90;;;;;;4386960;32;20696;-76
2024/02/27 12:42:48;;;;;;;0.70;0.70;;;8.20;99.90;;;;;;4391164;32;20081;-74
2024/02/27 12:45:15;;;;;;;0.50;0.50;;;8.20;99.90;;;;;;4397544;32;20085;-75
2024/02/27 12:47:42;;;;;;;0.52;0.52;;;8.20;99.90;;;;;;4394593;32;20671;-75
2024/02/27 12:50:10;;;;;;;1.52;0.70;;;8.10;99.90;;;;;;4396226;32;20134;-76
2024/02/27 12:52:36;;;;;;;0.47;0.47;;;8.00;99.90;;;;;;4390656;32;20081;-74
2024/02/27 12:55:03;;;;;;;0.50;0.50;;;7.90;99.90;;;;;;4394726;32;20208;-74